sensor_id;sensor_type;location;lat;lon;timestamp;pressure;altitude;pressure_sealevel;temperature;humidity
70684;BME280;58263;48.146;11.440;2023-04-10T00:01:40;96367.31;;;3.10;69.63
70684;BME280;58263;48.146;11.440;2023-04-10T00:04:05;96367.50;;;2.83;70.25
70684;BME280;58263;48.146;11.440;2023-04-10T00:06:31;96358.06;;;2.81;70.29
70684;BME280;58263;48.146;11.440;2023-04-10T00:08:57;96355.09;;;2.76;70.36
70684;BME280;58263;48.146;11.440;2023-04-10T00:11:23;96358.38;;;2.86;70.10
70684;BME280;58263;48.146;11.440;2023-04-10T00:13:49;96361.03;;;2.86;70.07
70684;BME280;58263;48.146;11.440;2023-04-10T00:16:14;96358.38;;;2.94;69.95
70684;BME280;58263;48.146;11.440;2023-04-10T00:18:39;96355.06;;;3.00;69.57
70684;BME280;58263;48.146;11.440;2023-04-10T00:21:05;96352.44;;;3.00;69.63
70684;BME280;58263;48.146;11.440;2023-04-10T00:23:30;96351.75;;;2.98;69.82
70684;BME280;58263;48.146;11.440;2023-04-10T00:25:56;96359.72;;;2.82;69.91
70684;BME280;58263;48.146;11.440;2023-04-10T00:28:22;96342.69;;;2.68;70.32
70684;BME280;58263;48.146;11.440;2023-04-10T00:30:47;96343.66;;;2.59;70.60
70684;BME280;58263;48.146;11.440;2023-04-10T00:33:12;96339.69;;;2.54;70.88
70684;BME280;58263;48.146;11.440;2023-04-10T00:35:38;96341.53;;;2.54;70.94
70684;BME280;58263;48.146;11.440;2023-04-10T00:38:03;96337.03;;;2.54;71.09
70684;BME280;58263;48.146;11.440;2023-04-10T00:40:28;96330.94;;;2.46;71.55
70684;BME280;58263;48.146;11.440;2023-04-10T00:42:54;96322.81;;;2.47;71.22
70684;BME280;58263;48.146;11.440;2023-04-10T00:45:20;96322.97;;;2.62;70.61
70684;BME280;58263;48.146;11.440;2023-04-10T00:47:45;96327.78;;;2.59;70.52
70684;BME280;58263;48.146;11.440;2023-04-10T00:50:11;96325.97;;;2.51;70.26
70684;BME280;58263;48.146;11.440;2023-04-10T00:52:36;96321.16;;;2.38;70.68
70684;BME280;58263;48.146;11.440;2023-04-10T00:55:02;96323.97;;;2.36;70.92
70684;BME280;58263;48.146;11.440;2023-04-10T00:57:28;96329.28;;;2.53;70.07
70684;BME280;58263;48.146;11.440;2023-04-10T00:59:54;96319.19;;;2.57;69.98
70684;BME280;58263;48.146;11.440;2023-04-10T01:02:19;96324.47;;;2.57;70.38
70684;BME280;58263;48.146;11.440;2023-04-10T01:04:45;96316.38;;;2.58;70.35
70684;BME280;58263;48.146;11.440;2023-04-10T01:10:00;96319.66;;;2.27;71.17
70684;BME280;58263;48.146;11.440;2023-04-10T01:12:56;96323.47;;;2.33;70.68
70684;BME280;58263;48.146;11.440;2023-04-10T01:15:25;96322.13;;;2.45;70.55
70684;BME280;58263;48.146;11.440;2023-04-10T01:20:21;96315.38;;;2.51;70.22
70684;BME280;58263;48.146;11.440;2023-04-10T01:30:44;96313.72;;;2.25;70.81
70684;BME280;58263;48.146;11.440;2023-04-10T01:33:12;96309.56;;;2.14;71.27
70684;BME280;58263;48.146;11.440;2023-04-10T01:35:42;96302.28;;;2.25;70.61
70684;BME280;58263;48.146;11.440;2023-04-10T01:38:09;96300.78;;;2.39;70.63
70684;BME280;58263;48.146;11.440;2023-04-10T01:40:38;96295.03;;;2.35;70.70
70684;BME280;58263;48.146;11.440;2023-04-10T01:43:05;96295.50;;;2.39;69.80
70684;BME280;58263;48.146;11.440;2023-04-10T01:45:33;96290.53;;;2.19;70.84
70684;BME280;58263;48.146;11.440;2023-04-10T01:47:59;96294.84;;;2.03;71.15
70684;BME280;58263;48.146;11.440;2023-04-10T01:50:25;96297.31;;;2.05;71.24
70684;BME280;58263;48.146;11.440;2023-04-10T01:52:53;96295.81;;;2.11;70.65
70684;BME280;58263;48.146;11.440;2023-04-10T01:55:19;96297.66;;;2.10;70.55
70684;BME280;58263;48.146;11.440;2023-04-10T01:57:45;96286.38;;;2.08;70.54
70684;BME280;58263;48.146;11.440;2023-04-10T02:00:13;96283.25;;;2.05;70.70
70684;BME280;58263;48.146;11.440;2023-04-10T02:02:40;96290.16;;;1.89;71.50
70684;BME280;58263;48.146;11.440;2023-04-10T02:08:33;96286.38;;;1.92;70.92
70684;BME280;58263;48.146;11.440;2023-04-10T02:11:06;96284.72;;;1.99;71.02
70684;BME280;58263;48.146;11.440;2023-04-10T02:13:37;96290.84;;;1.99;70.73
70684;BME280;58263;48.146;11.440;2023-04-10T02:16:06;96291.00;;;1.90;70.81
70684;BME280;58263;48.146;11.440;2023-04-10T02:18:33;96289.81;;;1.76;71.60
70684;BME280;58263;48.146;11.440;2023-04-10T02:21:00;96286.34;;;1.83;71.16
70684;BME280;58263;48.146;11.440;2023-04-10T02:23:26;96294.13;;;1.85;71.12
70684;BME280;58263;48.146;11.440;2023-04-10T02:25:52;96284.50;;;1.76;71.56
70684;BME280;58263;48.146;11.440;2023-04-10T02:28:17;96286.31;;;1.67;71.84
70684;BME280;58263;48.146;11.440;2023-04-10T02:30:42;96294.09;;;1.68;71.91
70684;BME280;58263;48.146;11.440;2023-04-10T02:33:08;96292.41;;;1.67;71.63
70684;BME280;58263;48.146;11.440;2023-04-10T02:35:33;96295.75;;;1.69;71.95
70684;BME280;58263;48.146;11.440;2023-04-10T02:37:58;96294.09;;;1.68;71.78
70684;BME280;58263;48.146;11.440;2023-04-10T02:40:24;96295.88;;;1.60;71.97
70684;BME280;58263;48.146;11.440;2023-04-10T02:42:49;96293.56;;;1.65;71.78
70684;BME280;58263;48.146;11.440;2023-04-10T02:45:15;96307.63;;;1.65;71.87
70684;BME280;58263;48.146;11.440;2023-04-10T02:47:40;96297.72;;;1.67;71.92
70684;BME280;58263;48.146;11.440;2023-04-10T02:50:05;96297.91;;;1.74;71.09
70684;BME280;58263;48.146;11.440;2023-04-10T02:52:31;96299.41;;;1.77;71.56
70684;BME280;58263;48.146;11.440;2023-04-10T02:54:56;96285.34;;;1.76;71.16
70684;BME280;58263;48.146;11.440;2023-04-10T02:57:21;96292.47;;;1.84;71.48
70684;BME280;58263;48.146;11.440;2023-04-10T02:59:50;96294.47;;;1.82;71.66
70684;BME280;58263;48.146;11.440;2023-04-10T03:02:16;96284.50;;;1.76;71.61
70684;BME280;58263;48.146;11.440;2023-04-10T03:04:41;96298.59;;;1.76;71.96
70684;BME280;58263;48.146;11.440;2023-04-10T03:07:07;96294.59;;;1.72;72.26
70684;BME280;58263;48.146;11.440;2023-04-10T03:09:33;96286.97;;;1.69;72.25
70684;BME280;58263;48.146;11.440;2023-04-10T03:11:58;96287.78;;;1.61;72.53
70684;BME280;58263;48.146;11.440;2023-04-10T03:14:23;96286.78;;;1.54;72.80
70684;BME280;58263;48.146;11.440;2023-04-10T03:16:48;96277.69;;;1.65;72.14
70684;BME280;58263;48.146;11.440;2023-04-10T03:19:14;96281.84;;;1.67;71.82
70684;BME280;58263;48.146;11.440;2023-04-10T03:21:40;96278.38;;;1.59;72.31
70684;BME280;58263;48.146;11.440;2023-04-10T03:24:06;96283.09;;;1.47;72.36
70684;BME280;58263;48.146;11.440;2023-04-10T03:26:31;96279.97;;;1.43;72.52
70684;BME280;58263;48.146;11.440;2023-04-10T03:28:57;96289.06;;;1.41;72.65
70684;BME280;58263;48.146;11.440;2023-04-10T03:31:22;96292.50;;;1.41;72.71
70684;BME280;58263;48.146;11.440;2023-04-10T03:33:48;96283.06;;;1.30;72.71
70684;BME280;58263;48.146;11.440;2023-04-10T03:36:13;96287.19;;;1.33;72.69
70684;BME280;58263;48.146;11.440;2023-04-10T03:38:38;96285.06;;;1.37;72.45
70684;BME280;58263;48.146;11.440;2023-04-10T03:41:04;96292.34;;;1.43;72.42
70684;BME280;58263;48.146;11.440;2023-04-10T03:43:30;96286.38;;;1.32;72.39
70684;BME280;58263;48.146;11.440;2023-04-10T03:45:55;96286.69;;;1.38;72.21
70684;BME280;58263;48.146;11.440;2023-04-10T03:48:21;96285.53;;;1.32;71.89
70684;BME280;58263;48.146;11.440;2023-04-10T03:50:46;96290.31;;;1.28;72.13
70684;BME280;58263;48.146;11.440;2023-04-10T03:53:11;96290.47;;;1.27;72.27
70684;BME280;58263;48.146;11.440;2023-04-10T03:55:36;96300.22;;;1.26;72.11
70684;BME280;58263;48.146;11.440;2023-04-10T03:58:03;96297.88;;;1.23;72.27
70684;BME280;58263;48.146;11.440;2023-04-10T04:00:28;96292.25;;;1.18;72.66
70684;BME280;58263;48.146;11.440;2023-04-10T04:02:54;96293.91;;;1.19;72.17
70684;BME280;58263;48.146;11.440;2023-04-10T04:05:19;96290.47;;;1.27;72.12
70684;BME280;58263;48.146;11.440;2023-04-10T04:07:45;96288.69;;;1.35;72.16
70684;BME280;58263;48.146;11.440;2023-04-10T04:10:10;96287.69;;;1.28;72.14
70684;BME280;58263;48.146;11.440;2023-04-10T04:12:36;96290.78;;;1.24;71.94
70684;BME280;58263;48.146;11.440;2023-04-10T04:15:01;96296.19;;;1.14;72.05
70684;BME280;58263;48.146;11.440;2023-04-10T04:17:27;96290.78;;;1.24;71.77
70684;BME280;58263;48.146;11.440;2023-04-10T04:19:52;96285.63;;;1.14;72.39
70684;BME280;58263;48.146;11.440;2023-04-10T04:22:17;96294.31;;;1.06;72.46
70684;BME280;58263;48.146;11.440;2023-04-10T04:24:43;96291.34;;;1.01;72.83
70684;BME280;58263;48.146;11.440;2023-04-10T04:27:08;96288.03;;;0.99;72.80
70684;BME280;58263;48.146;11.440;2023-04-10T04:29:33;96294.97;;;1.00;73.21
70684;BME280;58263;48.146;11.440;2023-04-10T04:31:59;96302.19;;;0.98;73.05
70684;BME280;58263;48.146;11.440;2023-04-10T04:34:24;96299.72;;;0.96;73.08
70684;BME280;58263;48.146;11.440;2023-04-10T04:36:49;96303.72;;;1.00;72.83
70684;BME280;58263;48.146;11.440;2023-04-10T04:39:15;96309.16;;;0.99;72.61
70684;BME280;58263;48.146;11.440;2023-04-10T04:41:40;96308.63;;;0.95;72.76
70684;BME280;58263;48.146;11.440;2023-04-10T04:44:05;96306.66;;;0.97;72.88
70684;BME280;58263;48.146;11.440;2023-04-10T04:46:31;96311.94;;;0.97;72.89
70684;BME280;58263;48.146;11.440;2023-04-10T04:48:56;96310.94;;;0.90;72.85
70684;BME280;58263;48.146;11.440;2023-04-10T04:51:22;96305.53;;;1.00;72.45
70684;BME280;58263;48.146;11.440;2023-04-10T04:53:47;96311.31;;;1.04;72.23
70684;BME280;58263;48.146;11.440;2023-04-10T04:56:13;96309.19;;;1.07;72.23
70684;BME280;58263;48.146;11.440;2023-04-10T04:58:38;96309.97;;;0.99;72.41
70684;BME280;58263;48.146;11.440;2023-04-10T05:01:03;96318.78;;;1.08;72.19
70684;BME280;58263;48.146;11.440;2023-04-10T05:03:29;96315.25;;;0.99;72.61
70684;BME280;58263;48.146;11.440;2023-04-10T05:05:55;96316.91;;;1.00;72.66
70684;BME280;58263;48.146;11.440;2023-04-10T05:08:20;96316.41;;;0.97;72.99
70684;BME280;58263;48.146;11.440;2023-04-10T05:10:46;96323.19;;;0.99;72.74
70684;BME280;58263;48.146;11.440;2023-04-10T05:13:11;96321.59;;;1.07;72.56
70684;BME280;58263;48.146;11.440;2023-04-10T05:15:37;96319.00;;;1.15;72.41
70684;BME280;58263;48.146;11.440;2023-04-10T05:18:03;96313.78;;;1.31;71.96
70684;BME280;58263;48.146;11.440;2023-04-10T05:20:29;96306.69;;;1.40;71.70
70684;BME280;58263;48.146;11.440;2023-04-10T05:22:54;96313.97;;;1.38;71.95
70684;BME280;58263;48.146;11.440;2023-04-10T05:25:19;96303.59;;;1.45;72.20
70684;BME280;58263;48.146;11.440;2023-04-10T05:27:45;96310.88;;;1.51;72.07
70684;BME280;58263;48.146;11.440;2023-04-10T05:30:10;96315.91;;;1.62;71.70
70684;BME280;58263;48.146;11.440;2023-04-10T05:32:36;96309.97;;;1.77;71.41
70684;BME280;58263;48.146;11.440;2023-04-10T05:35:01;96317.44;;;1.81;71.78
70684;BME280;58263;48.146;11.440;2023-04-10T05:37:27;96317.94;;;1.93;71.98
70684;BME280;58263;48.146;11.440;2023-04-10T05:39:52;96329.25;;;2.12;71.83
70684;BME280;58263;48.146;11.440;2023-04-10T05:42:17;96317.69;;;2.29;71.52
70684;BME280;58263;48.146;11.440;2023-04-10T05:44:43;96319.31;;;2.39;71.28
70684;BME280;58263;48.146;11.440;2023-04-10T05:47:09;96317.34;;;2.49;71.12
70684;BME280;58263;48.146;11.440;2023-04-10T05:49:34;96323.81;;;2.63;70.65
70684;BME280;58263;48.146;11.440;2023-04-10T05:52:00;96326.97;;;2.66;70.73
70684;BME280;58263;48.146;11.440;2023-04-10T05:54:25;96332.59;;;2.80;70.83
70684;BME280;58263;48.146;11.440;2023-04-10T05:56:50;96343.81;;;2.82;70.82
70684;BME280;58263;48.146;11.440;2023-04-10T05:59:16;96339.03;;;2.94;70.96
70684;BME280;58263;48.146;11.440;2023-04-10T06:01:41;96326.53;;;3.19;69.93
70684;BME280;58263;48.146;11.440;2023-04-10T06:04:06;96330.13;;;3.43;69.33
70684;BME280;58263;48.146;11.440;2023-04-10T06:06:32;96331.16;;;3.73;68.23
70684;BME280;58263;48.146;11.440;2023-04-10T06:08:58;96332.69;;;3.99;67.64
70684;BME280;58263;48.146;11.440;2023-04-10T06:11:23;96339.69;;;4.23;67.15
70684;BME280;58263;48.146;11.440;2023-04-10T06:13:48;96333.03;;;4.50;65.98
70684;BME280;58263;48.146;11.440;2023-04-10T06:16:14;96343.28;;;4.77;65.46
70684;BME280;58263;48.146;11.440;2023-04-10T06:18:40;96342.44;;;4.99;64.79
70684;BME280;58263;48.146;11.440;2023-04-10T06:21:06;96333.38;;;5.23;64.40
70684;BME280;58263;48.146;11.440;2023-04-10T06:23:31;96329.63;;;5.48;63.39
70684;BME280;58263;48.146;11.440;2023-04-10T06:25:57;96328.72;;;5.70;62.95
70684;BME280;58263;48.146;11.440;2023-04-10T06:28:22;96328.13;;;5.90;62.40
70684;BME280;58263;48.146;11.440;2023-04-10T06:30:47;96328.59;;;6.08;61.54
70684;BME280;58263;48.146;11.440;2023-04-10T06:33:13;96329.25;;;6.32;61.42
70684;BME280;58263;48.146;11.440;2023-04-10T06:35:38;96320.88;;;6.57;60.67
70684;BME280;58263;48.146;11.440;2023-04-10T06:38:03;96311.78;;;6.73;59.96
70684;BME280;58263;48.146;11.440;2023-04-10T06:40:29;96315.19;;;6.88;59.66
70684;BME280;58263;48.146;11.440;2023-04-10T06:42:55;96308.03;;;7.17;59.22
70684;BME280;58263;48.146;11.440;2023-04-10T06:45:20;96307.78;;;7.40;58.67
70684;BME280;58263;48.146;11.440;2023-04-10T06:47:46;96306.41;;;7.58;58.24
70684;BME280;58263;48.146;11.440;2023-04-10T06:50:11;96307.38;;;7.78;58.35
70684;BME280;58263;48.146;11.440;2023-04-10T06:52:37;96308.06;;;8.01;56.83
70684;BME280;58263;48.146;11.440;2023-04-10T06:55:02;96303.63;;;8.28;56.25
70684;BME280;58263;48.146;11.440;2023-04-10T06:57:27;96294.03;;;8.54;55.39
70684;BME280;58263;48.146;11.440;2023-04-10T06:59:53;96287.25;;;8.71;54.86
70684;BME280;58263;48.146;11.440;2023-04-10T07:02:18;96298.78;;;8.92;54.27
70684;BME280;58263;48.146;11.440;2023-04-10T07:04:43;96293.41;;;9.19;53.98
70684;BME280;58263;48.146;11.440;2023-04-10T07:07:09;96292.94;;;9.42;53.16
70684;BME280;58263;48.146;11.440;2023-04-10T07:09:37;96287.13;;;9.65;52.80
70684;BME280;58263;48.146;11.440;2023-04-10T07:12:02;96288.50;;;9.88;52.41
70684;BME280;58263;48.146;11.440;2023-04-10T07:14:28;96289.84;;;10.10;51.87
70684;BME280;58263;48.146;11.440;2023-04-10T07:16:53;96288.47;;;10.33;50.30
70684;BME280;58263;48.146;11.440;2023-04-10T07:19:18;96289.63;;;10.51;49.71
70684;BME280;58263;48.146;11.440;2023-04-10T07:21:45;96280.19;;;10.73;49.76
70684;BME280;58263;48.146;11.440;2023-04-10T07:24:14;96288.91;;;10.94;48.33
70684;BME280;58263;48.146;11.440;2023-04-10T07:26:39;96292.41;;;11.20;47.42
70684;BME280;58263;48.146;11.440;2023-04-10T07:29:04;96282.31;;;11.40;46.72
70684;BME280;58263;48.146;11.440;2023-04-10T07:31:30;96290.91;;;11.67;47.25
70684;BME280;58263;48.146;11.440;2023-04-10T07:33:55;96284.91;;;11.84;46.78
70684;BME280;58263;48.146;11.440;2023-04-10T07:36:20;96281.94;;;11.92;45.32
70684;BME280;58263;48.146;11.440;2023-04-10T07:38:46;96289.31;;;12.15;44.63
70684;BME280;58263;48.146;11.440;2023-04-10T07:41:11;96290.72;;;12.37;44.80
70684;BME280;58263;48.146;11.440;2023-04-10T07:43:37;96280.56;;;12.50;44.48
70684;BME280;58263;48.146;11.440;2023-04-10T07:46:02;96282.47;;;12.62;42.75
70684;BME280;58263;48.146;11.440;2023-04-10T07:48:27;96284.06;;;12.93;42.39
70684;BME280;58263;48.146;11.440;2023-04-10T07:50:52;96284.53;;;13.14;42.89
70684;BME280;58263;48.146;11.440;2023-04-10T07:53:18;96280.81;;;13.27;42.53
70684;BME280;58263;48.146;11.440;2023-04-10T07:55:45;96281.88;;;13.49;42.24
70684;BME280;58263;48.146;11.440;2023-04-10T07:58:13;96285.34;;;13.85;40.72
70684;BME280;58263;48.146;11.440;2023-04-10T08:00:38;96280.94;;;14.08;41.05
70684;BME280;58263;48.146;11.440;2023-04-10T08:03:04;96278.19;;;14.32;40.67
70684;BME280;58263;48.146;11.440;2023-04-10T08:05:30;96275.38;;;14.56;40.57
70684;BME280;58263;48.146;11.440;2023-04-10T08:07:55;96269.94;;;14.84;40.70
70684;BME280;58263;48.146;11.440;2023-04-10T08:10:21;96269.41;;;15.16;40.48
70684;BME280;58263;48.146;11.440;2023-04-10T08:12:46;96267.81;;;15.37;40.41
70684;BME280;58263;48.146;11.440;2023-04-10T08:15:12;96261.94;;;15.63;39.61
70684;BME280;58263;48.146;11.440;2023-04-10T08:17:37;96264.44;;;15.86;38.13
70684;BME280;58263;48.146;11.440;2023-04-10T08:20:03;96257.84;;;15.99;39.73
70684;BME280;58263;48.146;11.440;2023-04-10T08:22:29;96264.38;;;16.26;38.88
70684;BME280;58263;48.146;11.440;2023-04-10T08:24:54;96265.19;;;16.26;37.95
70684;BME280;58263;48.146;11.440;2023-04-10T08:27:20;96274.66;;;16.51;35.68
70684;BME280;58263;48.146;11.440;2023-04-10T08:29:45;96266.16;;;16.69;36.44
70684;BME280;58263;48.146;11.440;2023-04-10T08:32:10;96256.88;;;16.33;33.83
70684;BME280;58263;48.146;11.440;2023-04-10T08:34:36;96269.03;;;16.58;34.63
70684;BME280;58263;48.146;11.440;2023-04-10T08:37:05;96263.97;;;16.66;34.94
70684;BME280;58263;48.146;11.440;2023-04-10T08:39:30;96262.13;;;16.72;34.18
70684;BME280;58263;48.146;11.440;2023-04-10T08:41:55;96261.06;;;16.73;33.82
70684;BME280;58263;48.146;11.440;2023-04-10T08:44:21;96259.25;;;17.11;33.75
70684;BME280;58263;48.146;11.440;2023-04-10T08:46:47;96253.56;;;17.13;33.94
70684;BME280;58263;48.146;11.440;2023-04-10T08:49:16;96262.69;;;17.39;33.73
70684;BME280;58263;48.146;11.440;2023-04-10T08:51:55;96265.47;;;17.49;33.08
70684;BME280;58263;48.146;11.440;2023-04-10T08:54:28;96265.50;;;17.54;31.99
70684;BME280;58263;48.146;11.440;2023-04-10T08:56:55;96257.16;;;17.66;31.87
70684;BME280;58263;48.146;11.440;2023-04-10T08:59:21;96257.97;;;17.67;30.90
70684;BME280;58263;48.146;11.440;2023-04-10T09:01:47;96256.09;;;17.67;30.71
70684;BME280;58263;48.146;11.440;2023-04-10T09:04:12;96260.78;;;17.82;31.35
70684;BME280;58263;48.146;11.440;2023-04-10T09:06:38;96253.81;;;17.92;30.74
70684;BME280;58263;48.146;11.440;2023-04-10T09:09:05;96263.22;;;18.42;29.94
70684;BME280;58263;48.146;11.440;2023-04-10T09:14:28;96249.34;;;19.72;28.72
70684;BME280;58263;48.146;11.440;2023-04-10T09:17:10;96247.81;;;20.21;27.54
70684;BME280;58263;48.146;11.440;2023-04-10T09:19:36;96242.53;;;20.46;26.82
70684;BME280;58263;48.146;11.440;2023-04-10T09:22:01;96249.13;;;20.84;26.54
70684;BME280;58263;48.146;11.440;2023-04-10T09:24:27;96240.47;;;21.41;26.29
70684;BME280;58263;48.146;11.440;2023-04-10T09:26:52;96242.56;;;21.49;25.70
70684;BME280;58263;48.146;11.440;2023-04-10T09:29:18;96235.69;;;20.93;26.55
70684;BME280;58263;48.146;11.440;2023-04-10T09:31:44;96231.41;;;21.16;26.99
70684;BME280;58263;48.146;11.440;2023-04-10T09:36:43;96215.16;;;21.01;25.53
70684;BME280;58263;48.146;11.440;2023-04-10T09:39:10;96214.56;;;21.38;27.34
70684;BME280;58263;48.146;11.440;2023-04-10T09:41:52;96216.28;;;21.29;26.75
70684;BME280;58263;48.146;11.440;2023-04-10T09:44:30;96217.03;;;21.35;26.12
70684;BME280;58263;48.146;11.440;2023-04-10T09:46:56;96204.66;;;21.18;26.09
70684;BME280;58263;48.146;11.440;2023-04-10T09:49:22;96207.06;;;21.54;26.04
70684;BME280;58263;48.146;11.440;2023-04-10T09:51:47;96196.25;;;21.68;25.78
70684;BME280;58263;48.146;11.440;2023-04-10T09:54:14;96196.47;;;21.96;25.98
70684;BME280;58263;48.146;11.440;2023-04-10T09:56:40;96194.78;;;22.19;26.10
70684;BME280;58263;48.146;11.440;2023-04-10T09:59:06;96191.50;;;22.41;25.33
70684;BME280;58263;48.146;11.440;2023-04-10T10:01:32;96195.00;;;22.66;24.10
70684;BME280;58263;48.146;11.440;2023-04-10T10:04:03;96191.75;;;22.21;23.40
70684;BME280;58263;48.146;11.440;2023-04-10T10:06:32;96189.41;;;22.71;23.91
70684;BME280;58263;48.146;11.440;2023-04-10T10:09:02;96188.63;;;22.71;22.97
70684;BME280;58263;48.146;11.440;2023-04-10T10:11:31;96178.47;;;23.23;22.38
70684;BME280;58263;48.146;11.440;2023-04-10T10:13:57;96179.81;;;23.40;23.42
70684;BME280;58263;48.146;11.440;2023-04-10T10:16:47;96173.16;;;23.74;22.76
70684;BME280;58263;48.146;11.440;2023-04-10T10:19:30;96167.91;;;24.28;21.69
70684;BME280;58263;48.146;11.440;2023-04-10T10:21:59;96163.56;;;24.63;21.27
70684;BME280;58263;48.146;11.440;2023-04-10T10:24:27;96159.59;;;24.92;21.02
70684;BME280;58263;48.146;11.440;2023-04-10T10:26:54;96150.38;;;25.20;20.16
70684;BME280;58263;48.146;11.440;2023-04-10T10:29:22;96145.84;;;25.46;20.79
70684;BME280;58263;48.146;11.440;2023-04-10T10:31:48;96148.09;;;25.13;19.91
70684;BME280;58263;48.146;11.440;2023-04-10T10:34:15;96149.66;;;26.61;19.58
70684;BME280;58263;48.146;11.440;2023-04-10T10:36:40;96149.13;;;28.27;17.80
70684;BME280;58263;48.146;11.440;2023-04-10T10:39:16;96134.25;;;29.87;15.64
70684;BME280;58263;48.146;11.440;2023-04-10T10:44:55;96143.66;;;32.68;13.48
70684;BME280;58263;48.146;11.440;2023-04-10T10:47:29;96126.91;;;33.23;13.06
70684;BME280;58263;48.146;11.440;2023-04-10T10:50:02;96124.91;;;34.43;12.53
70684;BME280;58263;48.146;11.440;2023-04-10T10:57:53;96114.78;;;37.22;11.35
70684;BME280;58263;48.146;11.440;2023-04-10T11:00:20;96109.25;;;37.44;10.02
70684;BME280;58263;48.146;11.440;2023-04-10T11:05:54;96097.28;;;37.72;9.65
70684;BME280;58263;48.146;11.440;2023-04-10T11:11:07;96078.31;;;38.55;9.24
70684;BME280;58263;48.146;11.440;2023-04-10T11:13:34;96077.25;;;38.10;8.94
70684;BME280;58263;48.146;11.440;2023-04-10T11:16:02;96071.56;;;36.87;10.47
70684;BME280;58263;48.146;11.440;2023-04-10T11:21:59;96069.56;;;40.26;7.91
70684;BME280;58263;48.146;11.440;2023-04-10T11:24:25;96069.75;;;40.04;7.96
70684;BME280;58263;48.146;11.440;2023-04-10T11:26:50;96070.09;;;40.48;7.86
70684;BME280;58263;48.146;11.440;2023-04-10T11:31:57;96061.41;;;42.86;6.70
70684;BME280;58263;48.146;11.440;2023-04-10T11:34:23;96043.34;;;43.00;7.07
70684;BME280;58263;48.146;11.440;2023-04-10T11:36:49;96038.50;;;43.70;5.84
70684;BME280;58263;48.146;11.440;2023-04-10T11:39:15;96036.47;;;44.17;5.97
70684;BME280;58263;48.146;11.440;2023-04-10T11:41:45;96035.47;;;43.94;6.20
70684;BME280;58263;48.146;11.440;2023-04-10T11:44:17;96025.81;;;45.44;5.62
70684;BME280;58263;48.146;11.440;2023-04-10T11:46:46;96023.72;;;45.10;5.71
70684;BME280;58263;48.146;11.440;2023-04-10T11:49:17;96020.34;;;45.76;5.18
70684;BME280;58263;48.146;11.440;2023-04-10T11:51:45;96017.38;;;46.14;5.54
70684;BME280;58263;48.146;11.440;2023-04-10T11:54:22;96010.38;;;43.96;5.53
70684;BME280;58263;48.146;11.440;2023-04-10T11:57:04;96016.53;;;40.89;6.39
70684;BME280;58263;48.146;11.440;2023-04-10T11:59:32;96014.53;;;41.68;7.09
70684;BME280;58263;48.146;11.440;2023-04-10T12:04:32;96005.69;;;40.26;7.52
70684;BME280;58263;48.146;11.440;2023-04-10T12:06:57;96009.53;;;39.63;8.19
70684;BME280;58263;48.146;11.440;2023-04-10T12:09:23;95999.34;;;40.84;6.67
70684;BME280;58263;48.146;11.440;2023-04-10T12:11:59;96001.28;;;41.89;6.60
70684;BME280;58263;48.146;11.440;2023-04-10T12:16:56;96003.63;;;42.54;6.02
70684;BME280;58263;48.146;11.440;2023-04-10T12:19:22;96004.84;;;42.53;5.69
70684;BME280;58263;48.146;11.440;2023-04-10T12:21:48;96016.09;;;41.69;5.77
70684;BME280;58263;48.146;11.440;2023-04-10T12:24:43;96006.69;;;41.29;6.42
70684;BME280;58263;48.146;11.440;2023-04-10T12:27:29;96005.28;;;43.25;5.75
70684;BME280;58263;48.146;11.440;2023-04-10T12:29:56;95995.75;;;43.35;5.93
70684;BME280;58263;48.146;11.440;2023-04-10T12:32:23;95996.28;;;43.14;5.75
70684;BME280;58263;48.146;11.440;2023-04-10T12:34:50;95989.16;;;42.72;5.44
70684;BME280;58263;48.146;11.440;2023-04-10T12:37:16;95989.03;;;43.13;6.06
70684;BME280;58263;48.146;11.440;2023-04-10T12:39:41;95990.66;;;43.47;5.45
70684;BME280;58263;48.146;11.440;2023-04-10T12:42:24;95989.03;;;43.46;5.92
70684;BME280;58263;48.146;11.440;2023-04-10T12:44:58;95980.88;;;43.81;5.69
70684;BME280;58263;48.146;11.440;2023-04-10T12:47:27;95975.41;;;43.73;5.69
70684;BME280;58263;48.146;11.440;2023-04-10T12:50:06;95978.66;;;44.18;5.49
70684;BME280;58263;48.146;11.440;2023-04-10T12:52:32;95967.59;;;43.48;5.48
70684;BME280;58263;48.146;11.440;2023-04-10T12:55:27;95970.69;;;44.00;5.22
70684;BME280;58263;48.146;11.440;2023-04-10T12:57:55;95969.28;;;44.21;5.65
70684;BME280;58263;48.146;11.440;2023-04-10T13:00:21;95963.06;;;43.01;5.05
70684;BME280;58263;48.146;11.440;2023-04-10T13:02:47;95966.84;;;42.58;5.99
70684;BME280;58263;48.146;11.440;2023-04-10T13:05:13;95959.56;;;43.47;5.45
70684;BME280;58263;48.146;11.440;2023-04-10T13:07:39;95961.25;;;43.61;5.71
70684;BME280;58263;48.146;11.440;2023-04-10T13:10:05;95963.78;;;42.89;5.02
70684;BME280;58263;48.146;11.440;2023-04-10T13:12:31;95951.94;;;42.41;5.52
70684;BME280;58263;48.146;11.440;2023-04-10T13:14:59;95950.25;;;42.44;5.95
70684;BME280;58263;48.146;11.440;2023-04-10T13:17:25;95934.69;;;41.75;5.84
70684;BME280;58263;48.146;11.440;2023-04-10T13:19:52;95938.31;;;38.90;7.20
70684;BME280;58263;48.146;11.440;2023-04-10T13:22:17;95932.53;;;37.27;7.62
70684;BME280;58263;48.146;11.440;2023-04-10T13:24:43;95938.53;;;37.11;8.29
70684;BME280;58263;48.146;11.440;2023-04-10T13:27:09;95928.88;;;36.54;8.64
70684;BME280;58263;48.146;11.440;2023-04-10T13:29:35;95912.25;;;35.81;9.74
70684;BME280;58263;48.146;11.440;2023-04-10T13:32:02;95934.13;;;35.71;9.97
70684;BME280;58263;48.146;11.440;2023-04-10T13:34:31;95921.34;;;36.84;8.96
70684;BME280;58263;48.146;11.440;2023-04-10T13:36:56;95905.63;;;38.65;7.94
70684;BME280;58263;48.146;11.440;2023-04-10T13:39:22;95909.50;;;38.86;8.64
70684;BME280;58263;48.146;11.440;2023-04-10T13:41:47;95899.63;;;39.23;8.53
70684;BME280;58263;48.146;11.440;2023-04-10T13:44:12;95899.81;;;39.81;7.60